createdAt,value
2016-05-17T00:00:05.091Z,0
2016-05-17T00:01:08.112Z,0
2016-05-17T00:02:08.006Z,0
2016-05-17T00:03:08.133Z,0
2016-05-17T00:04:05.070Z,0
2016-05-17T00:05:07.857Z,0
2016-05-17T00:06:07.860Z,0
2016-05-17T00:07:07.738Z,0
2016-05-17T00:08:10.927Z,0
2016-05-17T00:09:07.649Z,0
2016-05-17T00:10:07.589Z,0
2016-05-17T00:11:07.530Z,0
2016-05-17T00:12:10.955Z,0
2016-05-17T00:13:07.488Z,0
2016-05-17T00:14:07.397Z,0
2016-05-17T00:15:07.368Z,0
2016-05-17T00:16:10.152Z,0
2016-05-17T00:17:07.233Z,0
2016-05-17T00:18:13.188Z,0
2016-05-17T00:19:04.423Z,0
2016-05-17T00:20:06.960Z,0
2016-05-17T00:21:10.072Z,0
2016-05-17T00:22:13.232Z,0
2016-05-17T00:23:06.921Z,0
2016-05-17T00:24:09.987Z,0
2016-05-17T00:25:03.830Z,0
2016-05-17T00:26:03.661Z,0
2016-05-17T00:27:03.929Z,0
2016-05-17T00:28:12.935Z,0
2016-05-17T00:29:03.810Z,0
2016-05-17T00:30:03.593Z,0
2016-05-17T00:31:12.552Z,0
2016-05-17T00:32:09.477Z,0
2016-05-17T00:33:06.837Z,0
2016-05-17T00:34:06.401Z,0
2016-05-17T00:35:06.356Z,0
2016-05-17T00:36:03.281Z,0
2016-05-17T00:37:09.131Z,0
2016-05-17T00:38:03.194Z,0
2016-05-17T00:39:03.525Z,0
2016-05-17T00:40:06.074Z,0
2016-05-17T00:41:08.922Z,0
2016-05-17T00:42:05.954Z,0
2016-05-17T00:43:05.925Z,0
2016-05-17T00:44:02.866Z,0
2016-05-17T00:45:05.869Z,0
2016-05-17T00:46:05.809Z,0
2016-05-17T00:47:05.577Z,0
2016-05-17T00:48:05.736Z,0
2016-05-17T00:49:02.599Z,0
2016-05-17T00:50:08.946Z,0
2016-05-17T00:51:02.728Z,0
2016-05-17T00:52:02.981Z,0
2016-05-17T00:53:02.421Z,0
2016-05-17T00:54:05.362Z,0
2016-05-17T00:55:05.301Z,0
2016-05-17T00:56:08.510Z,0
2016-05-17T00:57:05.432Z,0
2016-05-17T00:58:05.059Z,0
2016-05-17T00:59:05.109Z,0
2016-05-17T01:00:01.909Z,0
2016-05-17T01:01:02.021Z,0
2016-05-17T01:02:05.212Z,0
2016-05-17T01:03:01.761Z,0
2016-05-17T01:04:01.857Z,0
2016-05-17T01:05:01.797Z,0
2016-05-17T01:06:04.769Z,0
2016-05-17T01:07:04.880Z,0
2016-05-17T01:08:13.730Z,0
2016-05-17T01:09:01.667Z,0
2016-05-17T01:10:01.389Z,0
2016-05-17T01:11:07.533Z,0
2016-05-17T01:12:16.366Z,0
2016-05-17T01:13:07.756Z,0
2016-05-17T01:14:01.212Z,0
2016-05-17T01:15:02.011Z,0
2016-05-17T01:16:10.142Z,0
2016-05-17T01:17:01.611Z,0
2016-05-17T01:18:07.442Z,0
2016-05-17T01:19:01.304Z,0
2016-05-17T01:20:00.947Z,0
2016-05-17T01:21:07.013Z,0
2016-05-17T01:22:03.983Z,0
2016-05-17T01:23:03.752Z,0
2016-05-17T01:24:01.051Z,0
2016-05-17T01:25:03.710Z,0
2016-05-17T01:26:00.744Z,0
2016-05-17T01:27:03.935Z,0
2016-05-17T01:28:09.518Z,0
2016-05-17T01:29:03.627Z,0
2016-05-17T01:30:06.426Z,0
2016-05-17T01:31:00.507Z,0
2016-05-17T01:32:00.448Z,0
2016-05-17T01:33:03.091Z,0
2016-05-17T01:34:00.345Z,0
2016-05-17T01:35:00.315Z,0
2016-05-17T01:36:00.490Z,0
2016-05-17T01:37:00.868Z,0
2016-05-17T01:38:00.370Z,0
2016-05-17T01:39:00.217Z,0
2016-05-17T01:40:00.047Z,0
2016-05-17T01:41:00.003Z,0
2016-05-17T01:42:00.162Z,0
2016-05-17T01:42:59.884Z,0
2016-05-17T01:44:00.058Z,0
2016-05-17T01:44:59.670Z,0
2016-05-17T01:46:05.766Z,0
2016-05-17T01:46:59.769Z,0
2016-05-17T01:47:59.647Z,0
2016-05-17T01:49:02.618Z,0
2016-05-17T01:50:02.622Z,0
2016-05-17T01:51:02.499Z,0
2016-05-17T01:52:05.768Z,0
2016-05-17T01:52:59.224Z,0
2016-05-17T01:54:05.476Z,0
2016-05-17T01:54:59.151Z,0
2016-05-17T01:55:59.090Z,0
2016-05-17T01:57:05.077Z,0
2016-05-17T01:57:59.377Z,0
2016-05-17T01:59:01.974Z,0
2016-05-17T01:59:59.039Z,0
2016-05-17T02:01:02.198Z,0
2016-05-17T02:02:14.000Z,0
2016-05-17T02:03:01.890Z,0
2016-05-17T02:03:59.253Z,0
2016-05-17T02:04:58.817Z,0
2016-05-17T02:06:01.602Z,0
2016-05-17T02:07:05.308Z,0
2016-05-17T02:07:58.639Z,0
2016-05-17T02:09:01.798Z,0
2016-05-17T02:09:58.362Z,0
2016-05-17T02:10:58.522Z,0
2016-05-17T02:12:01.447Z,0
2016-05-17T02:13:01.605Z,0
2016-05-17T02:13:58.342Z,0
2016-05-17T02:14:58.298Z,0
2016-05-17T02:16:01.441Z,0
2016-05-17T02:17:01.194Z,0
2016-05-17T02:18:01.197Z,0
2016-05-17T02:18:57.933Z,0
2016-05-17T02:20:01.031Z,0
2016-05-17T02:20:58.376Z,0
2016-05-17T02:21:58.379Z,0
2016-05-17T02:22:57.866Z,0
2016-05-17T02:23:57.744Z,0
2016-05-17T02:24:57.513Z,0
2016-05-17T02:25:57.577Z,0
2016-05-17T02:26:57.690Z,0
2016-05-17T02:27:57.693Z,0
2016-05-17T02:28:57.601Z,0
2016-05-17T02:29:57.510Z,0
2016-05-17T02:30:57.326Z,0
2016-05-17T02:31:57.110Z,0
2016-05-17T02:32:57.221Z,0
2016-05-17T02:33:57.334Z,0
2016-05-17T02:35:00.539Z,0
2016-05-17T02:36:00.292Z,0
2016-05-17T02:37:00.075Z,0
2016-05-17T02:38:03.001Z,0
2016-05-17T02:38:59.956Z,0
2016-05-17T02:40:02.787Z,0
2016-05-17T02:40:57.118Z,0
2016-05-17T02:41:56.823Z,0
2016-05-17T02:42:56.780Z,0
2016-05-17T02:43:59.813Z,0
2016-05-17T02:44:56.972Z,0
2016-05-17T02:45:59.788Z,0
2016-05-17T02:46:56.869Z,0
2016-05-17T02:47:56.606Z,0
2016-05-17T02:48:56.780Z,0
2016-05-17T02:50:02.344Z,0
2016-05-17T02:50:59.472Z,0
2016-05-17T02:51:59.664Z,0
2016-05-17T02:52:59.572Z,0
2016-05-17T02:53:59.341Z,0
2016-05-17T02:54:59.327Z,0
2016-05-17T02:56:05.080Z,0
2016-05-17T02:56:59.005Z,0
2016-05-17T02:58:02.523Z,0
2016-05-17T02:58:59.041Z,0
2016-05-17T02:59:56.529Z,0
2016-05-17T03:00:56.000Z,0
2016-05-17T03:01:55.924Z,0
2016-05-17T03:03:01.849Z,0
2016-05-17T03:04:02.007Z,0
2016-05-17T03:05:01.760Z,0
2016-05-17T03:06:04.935Z,0
2016-05-17T03:06:55.906Z,0
2016-05-17T03:07:58.456Z,0
2016-05-17T03:08:58.568Z,0
2016-05-17T03:09:58.508Z,0
2016-05-17T03:10:55.136Z,0
2016-05-17T03:11:58.264Z,4
2016-05-17T03:12:55.642Z,4
2016-05-17T03:13:55.128Z,4
2016-05-17T03:14:55.319Z,4
2016-05-17T03:15:55.055Z,0
2016-05-17T03:16:57.840Z,0
2016-05-17T03:18:04.295Z,0
2016-05-17T03:18:55.064Z,0
2016-05-17T03:20:02.614Z,4
2016-05-17T03:20:54.772Z,4
2016-05-17T03:22:01.118Z,0
2016-05-17T03:23:00.871Z,4
2016-05-17T03:23:57.796Z,4
2016-05-17T03:25:00.752Z,8
2016-05-17T03:26:00.770Z,12
2016-05-17T03:27:00.679Z,8
2016-05-17T03:27:57.604Z,12
2016-05-17T03:28:57.513Z,16
2016-05-17T03:30:00.827Z,16
2016-05-17T03:30:57.315Z,20
2016-05-17T03:31:57.301Z,20
2016-05-17T03:32:54.571Z,20
2016-05-17T03:33:54.136Z,24
2016-05-17T03:34:57.279Z,24
2016-05-17T03:35:57.016Z,28
2016-05-17T03:37:00.175Z,32
2016-05-17T03:37:53.787Z,36
2016-05-17T03:38:57.039Z,36
2016-05-17T03:40:06.074Z,40
2016-05-17T03:40:56.982Z,44
2016-05-17T03:41:59.876Z,48
2016-05-17T03:42:56.894Z,48
2016-05-17T03:43:57.209Z,56
2016-05-17T03:44:59.759Z,64
2016-05-17T03:45:53.667Z,68
2016-05-17T03:46:59.498Z,72
2016-05-17T03:47:59.438Z,76
2016-05-17T03:48:53.520Z,80
2016-05-17T03:49:53.335Z,84
2016-05-17T03:50:59.305Z,88
2016-05-17T03:51:53.294Z,92
2016-05-17T03:52:53.530Z,92
2016-05-17T03:54:02.111Z,96
2016-05-17T03:54:59.738Z,100
2016-05-17T03:55:53.179Z,104
2016-05-17T03:56:55.947Z,116
2016-05-17T03:57:53.107Z,124
2016-05-17T03:58:55.859Z,132
2016-05-17T03:59:52.658Z,136
2016-05-17T04:00:55.943Z,144
2016-05-17T04:01:52.898Z,144
2016-05-17T04:02:52.823Z,148
2016-05-17T04:03:55.950Z,156
2016-05-17T04:04:52.704Z,164
2016-05-17T04:05:55.675Z,160
2016-05-17T04:06:52.443Z,156
2016-05-17T04:07:55.634Z,160
2016-05-17T04:08:52.495Z,160
2016-05-17T04:09:52.279Z,160
2016-05-17T04:10:52.391Z,164
2016-05-17T04:11:52.362Z,172
2016-05-17T04:12:55.318Z,180
2016-05-17T04:13:52.243Z,188
2016-05-17T04:14:55.230Z,192
2016-05-17T04:15:54.983Z,192
2016-05-17T04:16:54.954Z,196
2016-05-17T04:17:58.050Z,216
2016-05-17T04:18:51.991Z,232
2016-05-17T04:19:52.711Z,240
2016-05-17T04:20:54.731Z,244
2016-05-17T04:22:04.031Z,256
2016-05-17T04:22:51.986Z,260
2016-05-17T04:23:51.848Z,264
2016-05-17T04:24:51.522Z,268
2016-05-17T04:25:51.525Z,280
2016-05-17T04:26:57.621Z,296
2016-05-17T04:27:54.530Z,292
2016-05-17T04:28:51.486Z,288
2016-05-17T04:29:51.505Z,296
2016-05-17T04:30:57.226Z,328
2016-05-17T04:31:57.432Z,348
2016-05-17T04:32:51.154Z,372
2016-05-17T04:33:54.078Z,388
2016-05-17T04:35:00.596Z,388
2016-05-17T04:35:54.129Z,392
2016-05-17T04:36:54.399Z,404
2016-05-17T04:37:51.386Z,408
2016-05-17T04:38:53.810Z,416
2016-05-17T04:39:53.923Z,436
2016-05-17T04:40:54.097Z,436
2016-05-17T04:41:53.850Z,436
2016-05-17T04:42:56.898Z,432
2016-05-17T04:43:50.948Z,436
2016-05-17T04:44:50.889Z,460
2016-05-17T04:45:53.845Z,472
2016-05-17T04:46:50.598Z,472
2016-05-17T04:47:50.506Z,460
2016-05-17T04:48:59.462Z,468
2016-05-17T04:49:53.417Z,468
2016-05-17T04:50:53.202Z,484
2016-05-17T04:51:50.547Z,492
2016-05-17T04:52:53.505Z,504
2016-05-17T04:53:50.039Z,500
2016-05-17T04:54:50.338Z,504
2016-05-17T04:55:50.106Z,508
2016-05-17T04:56:53.030Z,504
2016-05-17T04:57:50.033Z,520
2016-05-17T04:58:58.989Z,544
2016-05-17T04:59:50.132Z,564
2016-05-17T05:00:53.057Z,584
2016-05-17T05:01:49.763Z,580
2016-05-17T05:02:52.750Z,572
2016-05-17T05:03:52.752Z,560
2016-05-17T05:04:49.630Z,580
2016-05-17T05:05:52.585Z,620
2016-05-17T05:06:50.073Z,676
2016-05-17T05:07:52.497Z,740
2016-05-17T05:08:52.453Z,800
2016-05-17T05:09:52.087Z,840
2016-05-17T05:10:55.273Z,876
2016-05-17T05:11:52.741Z,912
2016-05-17T05:12:52.364Z,896
2016-05-17T05:13:49.379Z,880
2016-05-17T05:14:49.348Z,880
2016-05-17T05:15:49.210Z,880
2016-05-17T05:16:52.182Z,856
2016-05-17T05:17:58.308Z,856
2016-05-17T05:18:58.249Z,872
2016-05-17T05:19:55.200Z,876
2016-05-17T05:20:55.161Z,872
2016-05-17T05:21:52.309Z,860
2016-05-17T05:22:48.911Z,852
2016-05-17T05:23:52.012Z,832
2016-05-17T05:24:51.941Z,832
2016-05-17T05:25:48.758Z,860
2016-05-17T05:26:51.873Z,872
2016-05-17T05:27:57.814Z,860
2016-05-17T05:28:51.788Z,824
2016-05-17T05:29:57.729Z,788
2016-05-17T05:30:49.186Z,744
2016-05-17T05:31:51.610Z,748
2016-05-17T05:32:51.411Z,812
2016-05-17T05:33:51.900Z,920
2016-05-17T05:34:51.667Z,984
2016-05-17T05:35:48.624Z,1080
2016-05-17T05:37:00.237Z,1124
2016-05-17T05:37:51.302Z,1136
2016-05-17T05:38:54.274Z,1128
2016-05-17T05:39:51.074Z,1148
2016-05-17T05:40:51.170Z,1160
2016-05-17T05:41:51.110Z,1184
2016-05-17T05:42:48.676Z,1196
2016-05-17T05:43:48.007Z,1188
2016-05-17T05:44:47.993Z,1200
2016-05-17T05:45:50.918Z,1212
2016-05-17T05:46:47.530Z,1220
2016-05-17T05:47:50.486Z,1220
2016-05-17T05:48:47.755Z,1220
2016-05-17T05:49:48.741Z,1196
2016-05-17T05:50:47.619Z,1196
2016-05-17T05:51:47.684Z,1212
2016-05-17T05:52:50.562Z,1224
2016-05-17T05:53:50.518Z,1228
2016-05-17T05:54:50.459Z,1204
2016-05-17T05:55:50.398Z,1188
2016-05-17T05:56:47.042Z,1176
2016-05-17T05:57:53.310Z,1148
2016-05-17T05:58:50.453Z,1132
2016-05-17T05:59:53.065Z,1112
2016-05-17T06:00:50.147Z,1108
2016-05-17T06:01:47.477Z,1092
2016-05-17T06:02:47.089Z,1080
2016-05-17T06:03:47.014Z,1096
2016-05-17T06:04:46.782Z,1160
2016-05-17T06:05:46.894Z,1228
2016-05-17T06:06:50.662Z,1212
2016-05-17T06:07:46.977Z,1260
2016-05-17T06:08:52.621Z,1368
2016-05-17T06:09:52.530Z,1380
2016-05-17T06:10:49.657Z,1392
2016-05-17T06:11:46.613Z,1392
2016-05-17T06:12:52.396Z,1448
2016-05-17T06:13:52.712Z,1504
2016-05-17T06:14:52.309Z,1548
2016-05-17T06:15:49.874Z,1556
2016-05-17T06:16:46.564Z,1532
2016-05-17T06:17:49.317Z,1496
2016-05-17T06:18:46.960Z,1528
2016-05-17T06:19:46.197Z,1532
2016-05-17T06:20:46.419Z,1532
2016-05-17T06:21:46.124Z,1516
2016-05-17T06:22:49.080Z,1540
2016-05-17T06:23:54.911Z,1532
2016-05-17T06:24:46.429Z,1536
2016-05-17T06:25:45.885Z,1544
2016-05-17T06:26:48.685Z,1532
2016-05-17T06:27:51.845Z,1544
2016-05-17T06:28:51.564Z,1624
2016-05-17T06:29:51.396Z,1688
2016-05-17T06:30:45.852Z,1760
2016-05-17T06:31:48.589Z,1828
2016-05-17T06:32:48.373Z,1872
2016-05-17T06:33:51.517Z,1932
2016-05-17T06:34:45.425Z,2020
2016-05-17T06:35:45.397Z,2112
2016-05-17T06:36:48.744Z,2128
2016-05-17T06:37:48.339Z,2100
2016-05-17T06:38:45.217Z,2056
2016-05-17T06:39:48.016Z,2008
2016-05-17T06:40:45.144Z,1952
2016-05-17T06:41:45.491Z,1912
2016-05-17T06:42:45.041Z,1888
2016-05-17T06:43:44.980Z,1892
2016-05-17T06:44:50.811Z,1912
2016-05-17T06:45:49.189Z,1932
2016-05-17T06:46:44.832Z,1948
2016-05-17T06:47:47.694Z,2000
2016-05-17T06:48:56.759Z,2048
2016-05-17T06:49:44.528Z,2064
2016-05-17T06:50:44.656Z,2044
2016-05-17T06:51:44.455Z,2036
2016-05-17T06:52:44.614Z,2124
2016-05-17T06:53:44.476Z,2196
2016-05-17T06:54:44.651Z,2228
2016-05-17T06:55:44.403Z,2188
2016-05-17T06:56:44.343Z,2208
2016-05-17T06:57:44.267Z,2296
2016-05-17T06:58:47.615Z,2372
2016-05-17T06:59:44.398Z,2420
2016-05-17T07:00:44.120Z,2496
2016-05-17T07:01:44.169Z,2588
2016-05-17T07:02:44.047Z,2608
2016-05-17T07:03:47.034Z,2628
2016-05-17T07:04:46.958Z,2728
2016-05-17T07:05:53.086Z,2880
2016-05-17T07:06:46.730Z,2956
2016-05-17T07:07:46.842Z,3004
2016-05-17T07:08:43.735Z,3084
2016-05-17T07:09:43.535Z,3140
2016-05-17T07:10:43.630Z,3200
2016-05-17T07:11:46.618Z,3168
2016-05-17T07:12:46.511Z,3160
2016-05-17T07:13:46.514Z,3172
2016-05-17T07:14:55.454Z,3104
2016-05-17T07:15:43.707Z,3092
2016-05-17T07:16:43.194Z,3076
2016-05-17T07:17:46.322Z,2980
2016-05-17T07:19:00.371Z,2972
2016-05-17T07:19:46.218Z,3000
2016-05-17T07:20:43.392Z,2996
2016-05-17T07:21:43.551Z,2972
2016-05-17T07:22:43.101Z,3008
2016-05-17T07:23:46.447Z,3028
2016-05-17T07:24:43.044Z,3100
2016-05-17T07:25:45.750Z,3156
2016-05-17T07:26:42.971Z,3244
2016-05-17T07:27:42.693Z,3404
2016-05-17T07:28:42.742Z,3500
2016-05-17T07:29:42.776Z,3616
2016-05-17T07:30:42.684Z,3656
2016-05-17T07:31:42.625Z,3652
2016-05-17T07:32:42.565Z,3592
2016-05-17T07:33:48.725Z,3612
2016-05-17T07:34:42.539Z,3712
2016-05-17T07:35:45.433Z,3740
2016-05-17T07:36:42.576Z,3816
2016-05-17T07:37:51.313Z,3900
2016-05-17T07:38:42.113Z,3872
2016-05-17T07:39:45.444Z,3928
2016-05-17T07:40:45.383Z,3920
2016-05-17T07:41:45.339Z,3940
2016-05-17T07:42:44.905Z,3944
2016-05-17T07:43:42.001Z,3972
2016-05-17T07:44:41.972Z,4048
2016-05-17T07:45:44.974Z,4052
2016-05-17T07:46:41.744Z,4168
2016-05-17T07:47:42.216Z,4228
2016-05-17T07:48:47.812Z,4344
2016-05-17T07:49:56.705Z,4360
2016-05-17T07:50:44.785Z,4364
2016-05-17T07:51:41.835Z,4484
2016-05-17T07:52:41.932Z,4528
2016-05-17T07:53:50.621Z,4644
2016-05-17T07:54:41.609Z,4692
2016-05-17T07:55:44.470Z,4728
2016-05-17T07:56:47.849Z,4788
2016-05-17T07:57:44.695Z,4812
2016-05-17T07:58:45.214Z,4852
2016-05-17T07:59:47.920Z,4884
2016-05-17T08:00:44.047Z,4928
2016-05-17T08:01:44.050Z,4948
2016-05-17T08:02:41.115Z,5016
2016-05-17T08:03:44.711Z,5060
2016-05-17T08:04:41.308Z,5044
2016-05-17T08:05:41.294Z,5044
2016-05-17T08:06:43.751Z,5068
2016-05-17T08:07:40.972Z,5056
2016-05-17T08:08:43.818Z,5092
2016-05-17T08:09:40.822Z,5092
2016-05-17T08:10:40.949Z,5148
2016-05-17T08:11:40.561Z,5164
2016-05-17T08:12:40.439Z,5204
2016-05-17T08:13:43.675Z,5240
2016-05-17T08:14:40.725Z,5208
2016-05-17T08:15:46.477Z,5192
2016-05-17T08:16:43.840Z,5104
2016-05-17T08:17:43.608Z,5028
2016-05-17T08:18:40.142Z,5068
2016-05-17T08:19:40.332Z,5128
2016-05-17T08:20:43.444Z,5172
2016-05-17T08:21:43.337Z,5204
2016-05-17T08:22:40.482Z,5248
2016-05-17T08:23:40.124Z,5256
2016-05-17T08:24:46.674Z,5184
2016-05-17T08:25:49.426Z,5168
2016-05-17T08:26:40.117Z,5152
2016-05-17T08:27:42.838Z,5116
2016-05-17T08:28:39.965Z,5160
2016-05-17T08:29:42.703Z,5220
2016-05-17T08:30:43.096Z,5288
2016-05-17T08:31:39.584Z,5300
2016-05-17T08:32:44.086Z,5300
2016-05-17T08:34:00.214Z,5380
2016-05-17T08:34:40.311Z,5404
2016-05-17T08:35:42.735Z,5372
2016-05-17T08:36:42.737Z,5324
2016-05-17T08:37:39.490Z,5384
2016-05-17T08:38:39.415Z,5268
2016-05-17T08:39:45.449Z,5164
2016-05-17T08:40:40.327Z,5140
2016-05-17T08:41:47.705Z,5160
2016-05-17T08:42:45.660Z,5220
2016-05-17T08:43:45.241Z,5388
2016-05-17T08:44:39.290Z,5376
2016-05-17T08:45:38.902Z,5412
2016-05-17T08:46:42.405Z,5432
2016-05-17T08:47:39.392Z,5452
2016-05-17T08:48:38.894Z,5492
2016-05-17T08:49:42.147Z,5528
2016-05-17T08:50:41.790Z,5632
2016-05-17T08:51:48.402Z,5588
2016-05-17T08:52:38.546Z,5520
2016-05-17T08:53:38.612Z,5508
2016-05-17T08:54:38.583Z,5432
2016-05-17T08:55:45.585Z,5444
2016-05-17T08:56:38.745Z,5560
2016-05-17T08:57:41.498Z,5700
2016-05-17T08:58:41.656Z,5844
2016-05-17T08:59:41.878Z,6048
2016-05-17T09:00:38.396Z,6168
2016-05-17T09:01:38.258Z,6328
2016-05-17T09:02:41.901Z,6520
2016-05-17T09:03:41.091Z,6632
2016-05-17T09:04:38.594Z,6684
2016-05-17T09:05:38.128Z,6696
2016-05-17T09:06:41.114Z,6612
2016-05-17T09:07:38.211Z,6528
2016-05-17T09:08:38.245Z,6488
2016-05-17T09:09:44.108Z,6432
2016-05-17T09:10:38.345Z,6368
2016-05-17T09:11:37.972Z,6180
2016-05-17T09:12:46.819Z,5960
2016-05-17T09:13:42.258Z,5772
2016-05-17T09:14:40.637Z,5816
2016-05-17T09:15:40.374Z,5944
2016-05-17T09:16:40.392Z,6072
2016-05-17T09:17:37.504Z,6164
2016-05-17T09:18:46.725Z,6264
2016-05-17T09:19:37.618Z,6332
2016-05-17T09:20:37.793Z,6364
2016-05-17T09:21:41.796Z,6308
2016-05-17T09:22:41.096Z,6328
2016-05-17T09:23:43.318Z,6364
2016-05-17T09:24:43.429Z,6444
2016-05-17T09:25:40.135Z,6584
2016-05-17T09:26:37.451Z,6596
2016-05-17T09:27:40.062Z,6616
2016-05-17T09:28:40.409Z,6600
2016-05-17T09:29:36.927Z,6640
2016-05-17T09:30:40.101Z,6692
2016-05-17T09:31:37.073Z,6680
2016-05-17T09:32:40.076Z,6624
2016-05-17T09:33:42.798Z,6584
2016-05-17T09:34:43.206Z,6540
2016-05-17T09:35:39.662Z,6532
2016-05-17T09:36:37.243Z,6624
2016-05-17T09:37:37.558Z,6672
2016-05-17T09:38:39.889Z,6588
2016-05-17T09:39:37.157Z,6464
2016-05-17T09:40:39.644Z,6348
2016-05-17T09:41:39.459Z,6188
2016-05-17T09:42:42.431Z,6196
2016-05-17T09:43:36.527Z,6276
2016-05-17T09:44:36.639Z,6252
2016-05-17T09:45:36.876Z,6316
2016-05-17T09:46:36.441Z,6420
2016-05-17T09:47:36.116Z,6456
2016-05-17T09:48:35.899Z,6448
2016-05-17T09:49:36.246Z,6336
2016-05-17T09:50:35.874Z,6292
2016-05-17T09:51:35.986Z,6424
2016-05-17T09:52:36.302Z,6540
2016-05-17T09:53:38.789Z,6804
2016-05-17T09:54:42.306Z,6852
2016-05-17T09:55:36.122Z,6892
2016-05-17T09:56:35.719Z,7052
2016-05-17T09:57:35.737Z,7116
2016-05-17T09:58:36.052Z,7064
2016-05-17T09:59:35.570Z,6972
2016-05-17T10:00:39.260Z,7220
2016-05-17T10:01:41.607Z,7276
2016-05-17T10:02:38.484Z,7340
2016-05-17T10:03:38.753Z,7284
2016-05-17T10:04:38.334Z,7244
2016-05-17T10:05:35.351Z,7360
2016-05-17T10:06:38.776Z,7572
2016-05-17T10:07:35.342Z,7688
2016-05-17T10:08:35.345Z,7712
2016-05-17T10:09:34.956Z,7708
2016-05-17T10:10:35.678Z,7580
2016-05-17T10:11:35.524Z,7516
2016-05-17T10:12:35.293Z,7584
2016-05-17T10:13:38.155Z,7592
2016-05-17T10:14:35.189Z,7632
2016-05-17T10:15:34.770Z,7656
2016-05-17T10:16:35.116Z,7736
2016-05-17T10:17:34.947Z,7744
2016-05-17T10:18:37.872Z,7688
2016-05-17T10:19:37.858Z,7636
2016-05-17T10:20:34.752Z,7584
2016-05-17T10:21:34.817Z,7392
2016-05-17T10:22:40.538Z,7276
2016-05-17T10:23:37.525Z,7112
2016-05-17T10:24:34.715Z,6856
2016-05-17T10:25:46.235Z,6640
2016-05-17T10:26:37.299Z,6512
2016-05-17T10:27:37.317Z,6552
2016-05-17T10:28:34.086Z,6336
2016-05-17T10:29:34.104Z,6216
2016-05-17T10:30:34.122Z,6184
2016-05-17T10:31:34.532Z,6108
2016-05-17T10:32:34.034Z,6000
2016-05-17T10:33:34.287Z,5796
2016-05-17T10:34:33.962Z,5460
2016-05-17T10:35:33.901Z,5564
2016-05-17T10:36:35.325Z,5232
2016-05-17T10:37:34.423Z,5124
2016-05-17T10:38:36.847Z,5056
2016-05-17T10:39:34.022Z,4864
2016-05-17T10:40:36.962Z,4668
2016-05-17T10:41:33.809Z,4616
2016-05-17T10:42:36.780Z,4572
2016-05-17T10:43:36.392Z,4440
2016-05-17T10:44:36.520Z,3736
2016-05-17T10:45:40.053Z,3992
2016-05-17T10:46:33.337Z,3656
2016-05-17T10:47:33.309Z,3356
2016-05-17T10:48:33.280Z,3176
2016-05-17T10:49:36.767Z,2984
2016-05-17T10:50:36.567Z,2920
2016-05-17T10:51:34.101Z,2744
2016-05-17T10:52:36.478Z,2880
2016-05-17T10:53:33.169Z,2836
2016-05-17T10:54:36.546Z,2848
2016-05-17T10:55:38.502Z,2844
2016-05-17T10:56:35.943Z,2924
2016-05-17T10:57:36.366Z,2980
2016-05-17T10:58:32.948Z,2912
2016-05-17T10:59:36.013Z,2972
2016-05-17T11:00:36.063Z,2984
2016-05-17T11:01:42.487Z,3032
2016-05-17T11:02:33.224Z,3056
2016-05-17T11:03:32.929Z,3100
2016-05-17T11:04:38.651Z,3216
2016-05-17T11:05:32.420Z,3352
2016-05-17T11:06:33.734Z,3388
2016-05-17T11:07:32.972Z,3184
2016-05-17T11:08:33.021Z,3892
2016-05-17T11:09:35.728Z,3832
2016-05-17T11:10:35.355Z,4872
2016-05-17T11:11:32.233Z,4716
2016-05-17T11:12:32.203Z,4472
2016-05-17T11:13:32.816Z,4916
2016-05-17T11:14:35.131Z,5792
2016-05-17T11:15:35.383Z,5756
2016-05-17T11:16:32.246Z,5076
2016-05-17T11:17:32.420Z,4612
2016-05-17T11:18:31.986Z,4264
2016-05-17T11:19:32.223Z,4184
2016-05-17T11:20:35.554Z,3868
2016-05-17T11:21:35.134Z,4140
2016-05-17T11:22:35.230Z,4372
2016-05-17T11:23:38.031Z,5284
2016-05-17T11:24:35.221Z,5232
2016-05-17T11:25:31.614Z,4388
2016-05-17T11:26:34.586Z,4304
2016-05-17T11:27:31.385Z,4756
2016-05-17T11:28:40.513Z,5116
2016-05-17T11:29:37.890Z,5628
2016-05-17T11:30:34.784Z,5840
2016-05-17T11:31:34.568Z,5884
2016-05-17T11:32:31.493Z,7144
2016-05-17T11:33:37.245Z,6928
2016-05-17T11:34:37.529Z,7540
2016-05-17T11:35:34.423Z,7880
2016-05-17T11:36:31.206Z,7956
2016-05-17T11:37:34.177Z,7444
2016-05-17T11:38:31.306Z,6952
2016-05-17T11:39:31.526Z,5668
2016-05-17T11:40:34.701Z,5860
2016-05-17T11:41:30.767Z,5664
2016-05-17T11:42:37.784Z,5828
2016-05-17T11:43:31.147Z,5572
2016-05-17T11:44:30.584Z,5360
2016-05-17T11:45:36.933Z,5392
2016-05-17T11:46:30.667Z,4480
2016-05-17T11:47:30.498Z,4060
2016-05-17T11:48:30.658Z,3956
2016-05-17T11:49:30.425Z,3796
2016-05-17T11:50:33.963Z,3652
2016-05-17T11:51:30.619Z,3844
2016-05-17T11:52:30.746Z,4228
2016-05-17T11:53:30.764Z,4908
2016-05-17T11:54:33.754Z,5032
2016-05-17T11:55:33.522Z,5064
2016-05-17T11:56:30.429Z,4984
2016-05-17T11:57:33.215Z,4256
2016-05-17T11:58:30.449Z,3900
2016-05-17T11:59:30.297Z,3716
2016-05-17T12:00:30.409Z,3736
2016-05-17T12:01:30.504Z,3720
2016-05-17T12:02:33.120Z,3708
2016-05-17T12:03:29.745Z,3740
2016-05-17T12:04:29.873Z,3888
2016-05-17T12:05:29.781Z,4144
2016-05-17T12:06:29.769Z,4364
2016-05-17T12:07:29.974Z,4084
2016-05-17T12:08:30.289Z,3780
2016-05-17T12:09:30.057Z,3688
2016-05-17T12:10:29.435Z,3624
2016-05-17T12:11:35.550Z,3784
2016-05-17T12:12:30.081Z,4080
2016-05-17T12:13:29.490Z,4208
2016-05-17T12:14:35.480Z,4444
2016-05-17T12:15:29.339Z,5028
2016-05-17T12:16:38.408Z,5928
2016-05-17T12:17:32.488Z,6504
2016-05-17T12:18:29.206Z,7060
2016-05-17T12:19:32.478Z,7352
2016-05-17T12:20:29.197Z,7064
2016-05-17T12:21:29.528Z,6628
2016-05-17T12:22:28.936Z,6344
2016-05-17T12:23:29.064Z,5688
2016-05-17T12:24:32.100Z,4964
2016-05-17T12:25:28.788Z,4856
2016-05-17T12:26:28.869Z,5348
2016-05-17T12:27:28.856Z,6064
2016-05-17T12:28:31.780Z,6376
2016-05-17T12:29:29.205Z,6832
2016-05-17T12:30:28.646Z,7008
2016-05-17T12:31:28.946Z,7256
2016-05-17T12:32:28.588Z,7780
2016-05-17T12:33:28.513Z,7860
2016-05-17T12:34:31.438Z,7680
2016-05-17T12:35:28.471Z,7668
2016-05-17T12:36:28.599Z,7528
2016-05-17T12:37:31.304Z,7224
2016-05-17T12:38:28.604Z,7020
2016-05-17T12:39:28.279Z,6636
2016-05-17T12:40:28.204Z,6332
2016-05-17T12:41:37.646Z,6276
2016-05-17T12:42:28.334Z,6300
2016-05-17T12:43:28.087Z,6280
2016-05-17T12:44:28.137Z,6464
2016-05-17T12:45:34.017Z,6752
2016-05-17T12:46:28.361Z,7052
2016-05-17T12:47:28.129Z,7464
2016-05-17T12:48:27.975Z,7704
2016-05-17T12:49:28.258Z,7948
2016-05-17T12:50:28.152Z,8356
2016-05-17T12:51:27.936Z,8656
2016-05-17T12:52:27.752Z,8664
2016-05-17T12:53:30.550Z,8420
2016-05-17T12:54:27.585Z,8388
2016-05-17T12:55:27.556Z,8424
2016-05-17T12:56:30.481Z,8352
2016-05-17T12:57:27.344Z,8144
2016-05-17T12:58:27.924Z,8032
2016-05-17T12:59:27.598Z,8076
2016-05-17T13:00:31.069Z,8252
2016-05-17T13:01:30.260Z,8292
2016-05-17T13:02:28.091Z,8232
2016-05-17T13:03:27.703Z,7856
2016-05-17T13:04:27.909Z,7136
2016-05-17T13:05:30.615Z,6072
2016-05-17T13:06:29.915Z,5432
2016-05-17T13:07:27.042Z,4940
2016-05-17T13:08:27.029Z,4892
2016-05-17T13:09:26.937Z,5072
2016-05-17T13:10:33.646Z,5052
2016-05-17T13:11:27.318Z,5048
2016-05-17T13:12:27.056Z,5024
2016-05-17T13:13:39.061Z,5044
2016-05-17T13:14:32.951Z,5144
2016-05-17T13:15:26.610Z,5392
2016-05-17T13:16:26.817Z,5540
2016-05-17T13:17:26.554Z,5644
2016-05-17T13:18:29.634Z,6088
2016-05-17T13:19:26.324Z,6552
2016-05-17T13:20:26.967Z,6664
2016-05-17T13:21:29.845Z,6936
2016-05-17T13:22:29.442Z,7344
2016-05-17T13:23:26.319Z,7656
2016-05-17T13:24:26.634Z,7868
2016-05-17T13:25:29.418Z,8132
2016-05-17T13:26:26.281Z,8428
2016-05-17T13:27:26.189Z,8804
2016-05-17T13:28:26.052Z,9236
2016-05-17T13:29:29.116Z,9640
2016-05-17T13:30:25.854Z,10156
2016-05-17T13:31:29.871Z,10600
2016-05-17T13:32:29.077Z,10308
2016-05-17T13:33:25.862Z,9468
2016-05-17T13:34:25.865Z,8700
2016-05-17T13:35:29.288Z,7632
2016-05-17T13:36:25.682Z,6276
2016-05-17T13:37:26.232Z,5608
2016-05-17T13:38:25.485Z,4796
2016-05-17T13:39:28.862Z,4300
2016-05-17T13:40:25.537Z,4156
2016-05-17T13:41:28.462Z,4340
2016-05-17T13:42:25.496Z,4476
2016-05-17T13:43:25.342Z,4588